createdAt,value
2023-03-28T00:02:25.460Z,21.37
2023-03-28T00:04:53.966Z,26.97
2023-03-28T00:07:23.015Z,19.37
2023-03-28T00:09:51.502Z,17.70
2023-03-28T00:12:19.895Z,18.30
2023-03-28T00:14:49.616Z,18.67
2023-03-28T00:17:18.766Z,16.67
2023-03-28T00:19:50.032Z,15.23
2023-03-28T00:22:18.614Z,19.00
2023-03-28T00:24:48.941Z,22.07
2023-03-28T00:27:18.119Z,16.37
2023-03-28T00:29:46.706Z,20.20
2023-03-28T00:32:16.396Z,18.43
2023-03-28T00:34:44.871Z,20.10
2023-03-28T00:37:17.314Z,17.33
2023-03-28T00:39:50.118Z,19.37
2023-03-28T00:42:18.915Z,18.03
2023-03-28T00:44:52.767Z,19.17
2023-03-28T00:47:33.641Z,20.70
2023-03-28T00:50:05.425Z,16.47
2023-03-28T00:52:42.658Z,17.47
2023-03-28T00:55:16.269Z,18.80
2023-03-28T00:57:46.405Z,22.77
2023-03-28T01:00:16.969Z,19.07
2023-03-28T01:02:51.375Z,23.23
2023-03-28T01:05:23.336Z,22.73
2023-03-28T01:07:55.861Z,17.40
2023-03-28T01:10:25.815Z,19.43
2023-03-28T01:12:57.132Z,22.00
2023-03-28T01:15:25.894Z,26.97
2023-03-28T01:17:57.123Z,26.13
2023-03-28T01:20:43.209Z,24.03
2023-03-28T01:24:11.636Z,22.53
2023-03-28T01:26:50.422Z,20.60
2023-03-28T01:30:04.036Z,19.57
2023-03-28T01:32:52.843Z,16.67
2023-03-28T01:35:43.604Z,28.27
2023-03-28T01:38:20.424Z,23.33
2023-03-28T01:40:56.048Z,19.17
2023-03-28T01:43:37.214Z,21.10
2023-03-28T01:46:11.838Z,23.27
2023-03-28T01:48:49.117Z,20.70
2023-03-28T01:51:25.886Z,17.20
2023-03-28T01:54:01.795Z,20.53
2023-03-28T01:56:37.834Z,16.77
2023-03-28T01:59:14.460Z,25.03
2023-03-28T02:01:52.913Z,19.40
2023-03-28T02:04:24.097Z,21.63
2023-03-28T02:06:53.930Z,22.27
2023-03-28T02:09:27.201Z,20.97
2023-03-28T02:12:00.714Z,28.60
2023-03-28T02:14:35.474Z,20.83
2023-03-28T02:17:15.919Z,20.17
2023-03-28T02:19:49.078Z,19.47
2023-03-28T02:22:23.943Z,28.97
2023-03-28T02:24:53.847Z,19.50
2023-03-28T02:27:24.058Z,24.83
2023-03-28T02:29:54.681Z,18.73
2023-03-28T02:32:24.904Z,21.17
2023-03-28T02:34:55.691Z,20.23
2023-03-28T02:37:33.920Z,20.43
2023-03-28T02:40:25.372Z,21.83
2023-03-28T02:43:12.831Z,20.03
2023-03-28T02:46:01.425Z,18.97
2023-03-28T02:48:45.437Z,18.27
2023-03-28T02:51:23.904Z,24.00
2023-03-28T02:53:59.480Z,21.33
2023-03-28T02:56:38.428Z,18.50
2023-03-28T02:59:11.511Z,19.10
2023-03-28T03:01:41.730Z,20.77
2023-03-28T03:04:10.294Z,16.50
2023-03-28T03:06:39.439Z,17.63
2023-03-28T03:09:08.648Z,18.60
2023-03-28T03:11:38.339Z,19.27
2023-03-28T03:14:06.862Z,18.90
2023-03-28T03:16:38.731Z,17.83
2023-03-28T03:19:07.628Z,18.50
2023-03-28T03:21:37.046Z,15.17
2023-03-28T03:24:05.751Z,16.63
2023-03-28T03:26:34.157Z,15.83
2023-03-28T03:29:04.038Z,18.77
2023-03-28T03:31:33.311Z,13.50
2023-03-28T03:34:02.079Z,17.27
2023-03-28T03:36:31.825Z,15.47
2023-03-28T03:39:00.432Z,14.20
2023-03-28T03:41:29.004Z,20.43
2023-03-28T03:43:57.447Z,15.10
2023-03-28T03:46:27.445Z,14.80
2023-03-28T03:48:55.934Z,13.03
2023-03-28T03:51:24.192Z,17.37
2023-03-28T03:53:52.720Z,15.50
2023-03-28T03:56:21.233Z,20.27
2023-03-28T03:58:49.976Z,22.37
2023-03-28T04:01:18.410Z,16.17
2023-03-28T04:03:49.144Z,17.10
2023-03-28T04:06:17.449Z,18.90
2023-03-28T04:08:46.467Z,14.20
2023-03-28T04:11:14.887Z,16.20
2023-03-28T04:13:43.334Z,19.57
2023-03-28T04:16:13.821Z,22.73
2023-03-28T04:18:50.907Z,17.00
2023-03-28T04:21:26.182Z,18.47
2023-03-28T04:23:55.012Z,14.90
2023-03-28T04:26:25.873Z,19.93
2023-03-28T04:28:55.244Z,19.57
2023-03-28T04:31:29.704Z,19.30
2023-03-28T04:34:00.454Z,19.13
2023-03-28T04:36:31.604Z,19.73
2023-03-28T04:39:02.677Z,18.33
2023-03-28T04:41:32.365Z,17.63
2023-03-28T04:44:01.001Z,14.83
2023-03-28T04:46:29.795Z,14.40
2023-03-28T04:48:58.317Z,16.47
2023-03-28T04:51:28.661Z,13.37
2023-03-28T04:53:58.445Z,15.77
2023-03-28T04:56:27.188Z,21.53
2023-03-28T04:58:55.837Z,26.43
2023-03-28T05:01:26.075Z,18.27
2023-03-28T05:03:54.660Z,18.90
2023-03-28T05:06:25.970Z,16.97
2023-03-28T05:08:54.664Z,27.77
2023-03-28T05:11:24.377Z,18.47
2023-03-28T05:13:53.059Z,19.40
2023-03-28T05:16:21.568Z,22.60
2023-03-28T05:18:51.434Z,15.70
2023-03-28T05:21:20.100Z,21.10
2023-03-28T05:23:51.705Z,18.70
2023-03-28T05:26:21.085Z,18.73
2023-03-28T05:28:50.955Z,21.37
2023-03-28T05:31:19.427Z,21.80
2023-03-28T05:33:47.912Z,24.73
2023-03-28T05:36:16.399Z,25.20
2023-03-28T05:38:45.605Z,21.90
2023-03-28T05:41:14.002Z,23.13
2023-03-28T05:43:42.462Z,22.43
2023-03-28T05:46:12.146Z,22.33
2023-03-28T05:48:41.011Z,15.73
2023-03-28T05:51:09.434Z,23.33
2023-03-28T05:53:37.885Z,17.90
2023-03-28T05:56:06.700Z,19.10
2023-03-28T05:58:35.391Z,18.90
2023-03-28T06:01:04.596Z,19.13
2023-03-28T06:03:39.736Z,19.23
2023-03-28T06:06:08.842Z,18.87
2023-03-28T06:08:37.612Z,22.90
2023-03-28T06:11:06.297Z,19.00
2023-03-28T06:13:34.905Z,23.20
2023-03-28T06:16:03.338Z,21.37
2023-03-28T06:18:33.550Z,16.33
2023-03-28T06:21:02.269Z,19.87
2023-03-28T06:23:31.020Z,16.77
2023-03-28T06:25:59.451Z,14.13
2023-03-28T06:28:28.372Z,18.87
2023-03-28T06:30:56.841Z,18.50
2023-03-28T06:33:25.475Z,24.53
2023-03-28T06:35:55.444Z,18.77
2023-03-28T06:38:24.313Z,21.20
2023-03-28T06:40:52.798Z,16.03
2023-03-28T06:43:21.217Z,15.57
2023-03-28T06:45:49.468Z,21.30
2023-03-28T06:48:17.908Z,21.67
2023-03-28T06:50:50.144Z,15.10
2023-03-28T06:53:20.744Z,23.20
2023-03-28T06:55:50.900Z,18.00
2023-03-28T06:58:19.449Z,21.23
2023-03-28T07:00:48.028Z,15.23
2023-03-28T07:03:16.584Z,14.40
2023-03-28T07:05:45.270Z,15.13
2023-03-28T07:08:15.150Z,18.73
2023-03-28T07:10:45.076Z,18.27
2023-03-28T07:13:13.694Z,17.00
2023-03-28T07:15:42.432Z,16.77
2023-03-28T07:18:11.301Z,16.40
2023-03-28T07:20:40.629Z,11.87
2023-03-28T07:23:09.408Z,10.50
2023-03-28T07:25:37.654Z,14.63
2023-03-28T07:28:07.552Z,13.53
2023-03-28T07:30:35.935Z,15.30
2023-03-28T07:33:16.049Z,14.80
2023-03-28T07:35:48.444Z,11.00
2023-03-28T07:38:16.887Z,11.93
2023-03-28T07:40:45.476Z,11.18
2023-03-28T07:43:16.100Z,10.93
2023-03-28T07:45:46.414Z,13.03
2023-03-28T07:48:14.852Z,7.73
2023-03-28T07:50:44.785Z,10.70
2023-03-28T07:53:13.151Z,14.13
2023-03-28T07:55:54.509Z,13.20
2023-03-28T07:58:25.863Z,12.00
2023-03-28T08:00:54.411Z,14.97
2023-03-28T08:03:23.761Z,13.17
2023-03-28T08:05:52.754Z,10.57
2023-03-28T08:08:22.781Z,13.00
2023-03-28T08:10:51.768Z,9.30
2023-03-28T08:13:21.345Z,11.83
2023-03-28T08:15:54.995Z,12.77
2023-03-28T08:18:25.493Z,11.17
2023-03-28T08:21:01.059Z,13.17
2023-03-28T08:23:30.202Z,11.37
2023-03-28T08:26:04.868Z,14.43
2023-03-28T08:28:34.556Z,16.60
2023-03-28T08:31:09.529Z,9.80
2023-03-28T08:33:38.087Z,9.33
2023-03-28T08:36:07.070Z,10.30
2023-03-28T08:38:36.647Z,16.03
2023-03-28T08:41:18.443Z,12.23
2023-03-28T08:44:10.274Z,15.47
2023-03-28T08:46:43.441Z,10.93
2023-03-28T08:49:16.668Z,14.17
2023-03-28T08:51:49.164Z,13.17
2023-03-28T08:54:21.712Z,15.43
2023-03-28T08:56:53.029Z,12.90
2023-03-28T08:59:26.676Z,11.60
2023-03-28T09:01:56.509Z,11.53
2023-03-28T09:04:29.618Z,12.77
2023-03-28T09:07:03.345Z,9.97
2023-03-28T09:09:41.954Z,9.75
2023-03-28T09:12:27.649Z,10.83
2023-03-28T09:15:26.039Z,12.53
2023-03-28T09:18:12.830Z,8.77
2023-03-28T09:20:46.350Z,12.40
2023-03-28T09:23:30.193Z,13.47
2023-03-28T09:26:02.346Z,13.73
2023-03-28T09:28:39.730Z,11.33
2023-03-28T09:31:11.332Z,12.00
2023-03-28T09:33:44.007Z,10.37
2023-03-28T09:36:14.329Z,14.17
2023-03-28T09:38:47.054Z,12.13
2023-03-28T09:41:20.312Z,9.23
2023-03-28T09:43:52.807Z,17.83
2023-03-28T09:46:29.649Z,14.00
2023-03-28T09:48:59.791Z,10.47
2023-03-28T09:51:28.418Z,11.43
2023-03-28T09:53:56.972Z,10.40
2023-03-28T09:56:28.680Z,10.77
2023-03-28T09:58:58.448Z,12.30
2023-03-28T10:01:44.530Z,8.40
2023-03-28T10:04:17.409Z,10.23
2023-03-28T10:06:48.139Z,8.23
2023-03-28T10:09:22.386Z,9.67
2023-03-28T10:11:54.925Z,8.07
2023-03-28T10:14:33.873Z,11.40
2023-03-28T10:17:04.059Z,11.77
2023-03-28T10:19:35.919Z,12.33
2023-03-28T10:22:07.550Z,13.33
2023-03-28T10:24:37.787Z,9.27
2023-03-28T10:27:17.795Z,9.03
2023-03-28T10:29:47.663Z,8.90
2023-03-28T10:32:25.995Z,10.33
2023-03-28T10:35:04.228Z,7.87
2023-03-28T10:37:35.079Z,10.03
2023-03-28T10:40:06.783Z,10.87
2023-03-28T10:42:42.676Z,8.60
2023-03-28T10:45:22.011Z,11.33
2023-03-28T10:47:51.802Z,10.13
2023-03-28T10:50:36.849Z,11.07
2023-03-28T10:53:21.223Z,9.10
2023-03-28T10:56:03.743Z,10.20
2023-03-28T10:58:36.961Z,9.27
2023-03-28T11:01:17.834Z,10.13
2023-03-28T11:03:59.952Z,11.73
2023-03-28T11:06:35.743Z,8.77
2023-03-28T11:09:14.479Z,8.90
2023-03-28T11:11:53.669Z,8.40
2023-03-28T11:14:32.006Z,8.47
2023-03-28T11:17:07.008Z,10.20
2023-03-28T11:20:01.709Z,8.80
2023-03-28T11:22:52.319Z,9.17
2023-03-28T11:25:38.055Z,8.23
2023-03-28T11:28:16.054Z,11.10
2023-03-28T11:30:49.101Z,8.90
2023-03-28T11:33:21.581Z,10.27
2023-03-28T11:35:56.109Z,7.37
2023-03-28T11:38:31.000Z,11.27
2023-03-28T11:41:03.705Z,9.60
2023-03-28T11:43:36.774Z,13.17
2023-03-28T11:46:10.194Z,8.23
2023-03-28T11:48:45.645Z,8.27
2023-03-28T11:51:17.397Z,10.00
2023-03-28T11:53:52.983Z,7.57
2023-03-28T11:56:31.725Z,9.17
2023-03-28T11:59:06.112Z,10.60
2023-03-28T12:01:38.664Z,5.73
2023-03-28T12:04:11.639Z,9.80
2023-03-28T12:06:59.536Z,12.77
2023-03-28T12:09:36.995Z,7.90
2023-03-28T12:12:11.752Z,7.53
2023-03-28T12:14:48.199Z,7.30
2023-03-28T12:17:21.225Z,9.50
2023-03-28T12:19:49.759Z,8.07
2023-03-28T12:22:23.767Z,10.37
2023-03-28T12:25:00.419Z,5.30
2023-03-28T12:27:43.367Z,15.67
2023-03-28T12:30:21.285Z,9.97
2023-03-28T12:32:55.524Z,8.53
2023-03-28T12:35:30.646Z,10.93
2023-03-28T12:38:07.013Z,5.93
2023-03-28T12:40:50.725Z,7.83
2023-03-28T12:43:22.348Z,8.17
2023-03-28T12:45:57.282Z,12.67
2023-03-28T12:48:33.748Z,9.10
2023-03-28T12:51:08.574Z,6.80
2023-03-28T12:53:45.408Z,6.60
2023-03-28T12:56:16.731Z,10.20
2023-03-28T12:58:48.896Z,8.37
2023-03-28T13:01:34.578Z,4.97
2023-03-28T13:04:13.615Z,9.07
2023-03-28T13:06:53.473Z,7.23
2023-03-28T13:09:41.083Z,5.37
2023-03-28T13:12:35.569Z,7.40
2023-03-28T13:15:25.414Z,7.90
2023-03-28T13:18:27.842Z,8.03
2023-03-28T13:20:56.733Z,9.37
2023-03-28T13:23:31.359Z,9.27
2023-03-28T13:26:00.657Z,8.87
2023-03-28T13:28:44.838Z,11.57
2023-03-28T13:31:21.592Z,6.90
2023-03-28T13:33:54.059Z,8.73
2023-03-28T13:36:27.265Z,7.80
2023-03-28T13:39:23.293Z,9.07
2023-03-28T13:42:01.780Z,7.80
2023-03-28T13:44:42.610Z,10.63
2023-03-28T13:47:19.161Z,8.67
2023-03-28T13:49:51.562Z,7.83
2023-03-28T13:52:21.918Z,8.20
2023-03-28T13:54:54.247Z,7.97
2023-03-28T13:57:26.080Z,8.50
2023-03-28T13:59:58.486Z,6.87
2023-03-28T14:02:37.542Z,4.97
2023-03-28T14:05:14.077Z,7.47
2023-03-28T14:07:42.883Z,7.83
2023-03-28T14:10:31.635Z,8.50
2023-03-28T14:13:03.478Z,7.83
2023-03-28T14:15:36.544Z,6.83
2023-03-28T14:18:05.431Z,9.20
2023-03-28T14:20:36.183Z,6.30
2023-03-28T14:23:06.450Z,8.60
2023-03-28T14:25:38.041Z,9.73
2023-03-28T14:28:10.399Z,8.77
2023-03-28T14:30:43.572Z,9.60
2023-03-28T14:33:21.678Z,10.83
2023-03-28T14:36:00.041Z,8.30
2023-03-28T14:38:31.100Z,9.07
2023-03-28T14:41:08.024Z,10.03
2023-03-28T14:43:37.754Z,8.60
2023-03-28T14:46:09.297Z,13.77
2023-03-28T14:48:39.250Z,12.77
2023-03-28T14:51:08.322Z,9.90
2023-03-28T14:53:42.134Z,9.33
2023-03-28T14:56:13.560Z,7.17
2023-03-28T14:58:45.087Z,10.17
2023-03-28T15:01:22.851Z,11.70
2023-03-28T15:03:54.627Z,7.30
2023-03-28T15:06:24.370Z,7.70
2023-03-28T15:08:56.147Z,7.43
2023-03-28T15:11:27.165Z,9.13
2023-03-28T15:14:02.398Z,9.00
2023-03-28T15:16:37.467Z,9.53
2023-03-28T15:19:09.379Z,9.77
2023-03-28T15:21:39.602Z,9.73
2023-03-28T15:24:13.001Z,11.80
2023-03-28T15:26:45.224Z,11.37
2023-03-28T15:29:18.568Z,9.83
2023-03-28T15:31:49.003Z,8.13
2023-03-28T15:34:22.486Z,10.37
2023-03-28T15:36:52.777Z,13.93
2023-03-28T15:39:25.545Z,11.20
2023-03-28T15:41:56.126Z,9.47
2023-03-28T15:44:28.452Z,7.73
2023-03-28T15:47:01.282Z,9.73
2023-03-28T15:49:30.279Z,10.30
2023-03-28T15:52:02.527Z,10.97
2023-03-28T15:54:32.353Z,9.23
2023-03-28T15:57:03.564Z,8.93
2023-03-28T15:59:36.408Z,11.03
2023-03-28T16:02:31.633Z,9.93
2023-03-28T16:05:01.661Z,9.50
2023-03-28T16:07:36.013Z,9.67
2023-03-28T16:10:05.362Z,6.97
2023-03-28T16:12:34.003Z,9.07
2023-03-28T16:15:04.589Z,8.50
2023-03-28T16:17:35.071Z,9.73
2023-03-28T16:20:08.221Z,7.40
2023-03-28T16:22:36.686Z,9.00
2023-03-28T16:25:05.139Z,7.53
2023-03-28T16:27:34.909Z,6.47
2023-03-28T16:30:07.841Z,3.63
2023-03-28T16:32:37.619Z,5.03
2023-03-28T16:35:07.339Z,5.93
2023-03-28T16:37:36.256Z,3.97
2023-03-28T16:40:05.032Z,5.77
2023-03-28T16:42:33.456Z,7.20
2023-03-28T16:45:01.854Z,4.43
2023-03-28T16:47:30.792Z,3.27
2023-03-28T16:50:00.462Z,4.47
2023-03-28T16:52:30.075Z,5.87
2023-03-28T16:54:58.561Z,3.23
2023-03-28T16:57:27.494Z,3.80
2023-03-28T16:59:56.393Z,5.87
2023-03-28T17:02:24.986Z,7.17
2023-03-28T17:04:53.668Z,7.20
2023-03-28T17:07:23.723Z,8.33
2023-03-28T17:09:52.425Z,9.50
2023-03-28T17:12:22.519Z,6.63
2023-03-28T17:14:50.831Z,9.70
2023-03-28T17:17:20.494Z,7.63
2023-03-28T17:19:49.351Z,8.57
2023-03-28T17:22:17.776Z,7.67
2023-03-28T17:24:47.473Z,9.07
2023-03-28T17:27:16.419Z,7.97
2023-03-28T17:29:44.830Z,7.50
2023-03-28T17:32:13.461Z,8.53
2023-03-28T17:34:41.923Z,6.80
2023-03-28T17:37:10.326Z,9.07
2023-03-28T17:39:40.913Z,6.70
2023-03-28T17:42:10.939Z,8.07
2023-03-28T17:44:39.995Z,8.27
2023-03-28T17:47:09.146Z,6.10
2023-03-28T17:49:37.717Z,7.17
2023-03-28T17:52:06.189Z,7.83
2023-03-28T17:54:34.835Z,5.47
2023-03-28T17:57:03.611Z,7.87
2023-03-28T17:59:33.468Z,6.70
2023-03-28T18:02:02.459Z,7.00
2023-03-28T18:04:31.266Z,6.33
2023-03-28T18:06:59.669Z,7.97
2023-03-28T18:09:28.736Z,7.33
2023-03-28T18:11:57.156Z,6.63
2023-03-28T18:14:25.636Z,8.87
2023-03-28T18:16:56.443Z,12.37
2023-03-28T18:19:24.861Z,7.33
2023-03-28T18:21:53.354Z,6.63
2023-03-28T18:24:21.801Z,7.87
2023-03-28T18:26:50.489Z,7.80
2023-03-28T18:29:18.926Z,9.90
2023-03-28T18:31:47.385Z,8.23
2023-03-28T18:34:17.270Z,8.83
2023-03-28T18:36:46.461Z,12.23
2023-03-28T18:39:15.418Z,11.13
2023-03-28T18:41:43.946Z,9.30
2023-03-28T18:44:12.316Z,9.03
2023-03-28T18:46:41.039Z,18.53
2023-03-28T18:49:09.652Z,10.10
2023-03-28T18:51:39.745Z,10.83
2023-03-28T18:54:08.346Z,15.73
2023-03-28T18:56:37.072Z,11.63
2023-03-28T18:59:05.566Z,12.57
2023-03-28T19:01:34.692Z,13.50
2023-03-28T19:04:03.239Z,17.80
2023-03-28T19:06:31.983Z,14.57
2023-03-28T19:09:03.358Z,16.67
2023-03-28T19:11:31.909Z,16.70
2023-03-28T19:14:00.364Z,16.50
2023-03-28T19:16:29.629Z,14.67
2023-03-28T19:18:58.211Z,18.63
2023-03-28T19:21:26.627Z,12.60
2023-03-28T19:23:55.380Z,14.57
2023-03-28T19:26:26.279Z,15.87
2023-03-28T19:28:55.154Z,17.53
2023-03-28T19:31:24.773Z,16.80
2023-03-28T19:33:53.555Z,16.33
2023-03-28T19:36:22.175Z,15.57
2023-03-28T19:38:51.010Z,15.67
2023-03-28T19:41:20.628Z,14.37
2023-03-28T19:43:51.376Z,12.73
2023-03-28T19:46:23.955Z,14.50
2023-03-28T19:48:57.068Z,13.97
2023-03-28T19:51:25.611Z,14.40
2023-03-28T19:53:54.072Z,14.80
2023-03-28T19:56:23.071Z,15.80
2023-03-28T19:58:53.208Z,12.93
2023-03-28T20:01:22.179Z,13.50
2023-03-28T20:03:53.100Z,15.17
2023-03-28T20:06:22.892Z,14.33
2023-03-28T20:08:51.850Z,11.83
2023-03-28T20:11:20.552Z,13.77
2023-03-28T20:13:49.197Z,12.60
2023-03-28T20:16:18.837Z,11.83
2023-03-28T20:18:48.427Z,11.80
2023-03-28T20:21:16.957Z,13.87
2023-03-28T20:23:45.456Z,11.33
2023-03-28T20:26:16.810Z,11.17
2023-03-28T20:28:50.381Z,11.83
2023-03-28T20:31:22.580Z,10.37
2023-03-28T20:33:53.255Z,11.17
2023-03-28T20:36:21.842Z,14.70
2023-03-28T20:38:50.666Z,10.63
2023-03-28T20:41:19.814Z,15.20
2023-03-28T20:43:50.235Z,11.03
2023-03-28T20:46:20.544Z,10.57
2023-03-28T20:48:52.229Z,13.00
2023-03-28T20:51:22.622Z,10.30
2023-03-28T20:53:53.564Z,12.03
2023-03-28T20:56:23.452Z,11.97
2023-03-28T20:58:53.253Z,11.23
2023-03-28T21:01:28.269Z,10.50
2023-03-28T21:04:00.055Z,10.60
2023-03-28T21:06:30.752Z,11.90
2023-03-28T21:09:00.584Z,13.30
2023-03-28T21:11:31.033Z,9.03
2023-03-28T21:14:01.111Z,11.27
2023-03-28T21:16:33.059Z,12.17
2023-03-28T21:19:02.584Z,12.40
2023-03-28T21:21:33.302Z,12.87
2023-03-28T21:24:02.260Z,9.60
2023-03-28T21:26:31.349Z,11.63
2023-03-28T21:29:00.188Z,12.90
2023-03-28T21:31:30.903Z,10.17
2023-03-28T21:34:01.007Z,11.93
2023-03-28T21:36:29.940Z,11.57
2023-03-28T21:38:58.540Z,13.43
2023-03-28T21:41:28.028Z,12.77
2023-03-28T21:43:56.887Z,16.20
2023-03-28T21:46:25.870Z,10.93
2023-03-28T21:48:55.740Z,14.97
2023-03-28T21:51:24.288Z,10.27
2023-03-28T21:53:53.056Z,13.93
2023-03-28T21:56:21.521Z,10.73
2023-03-28T21:58:50.266Z,11.67
2023-03-28T22:01:18.994Z,11.83
2023-03-28T22:03:48.238Z,11.03
2023-03-28T22:06:19.644Z,15.17
2023-03-28T22:08:52.227Z,11.50
2023-03-28T22:11:28.004Z,11.47
2023-03-28T22:14:01.494Z,11.97
2023-03-28T22:16:33.903Z,10.53
2023-03-28T22:19:02.916Z,12.00
2023-03-28T22:21:32.908Z,9.50
2023-03-28T22:24:02.917Z,9.13
2023-03-28T22:26:31.687Z,12.73
2023-03-28T22:29:00.186Z,9.53
2023-03-28T22:31:28.845Z,11.17
2023-03-28T22:33:57.667Z,12.87
2023-03-28T22:36:27.161Z,10.50
2023-03-28T22:38:57.176Z,11.67
2023-03-28T22:41:25.632Z,14.73
2023-03-28T22:43:54.220Z,9.67
2023-03-28T22:46:22.819Z,9.90
2023-03-28T22:48:54.269Z,7.80
2023-03-28T22:51:25.267Z,11.33
2023-03-28T22:53:54.085Z,9.47
2023-03-28T22:56:25.792Z,12.77
2023-03-28T22:58:55.893Z,9.23
2023-03-28T23:01:26.272Z,10.57
2023-03-28T23:03:54.713Z,9.07
2023-03-28T23:06:23.435Z,10.47
2023-03-28T23:08:52.303Z,11.20
2023-03-28T23:11:21.229Z,9.73
2023-03-28T23:13:51.750Z,12.70
2023-03-28T23:16:20.243Z,10.37
2023-03-28T23:18:50.157Z,10.07
2023-03-28T23:21:18.792Z,11.53
2023-03-28T23:23:47.882Z,8.07
2023-03-28T23:26:16.733Z,9.30
2023-03-28T23:28:45.184Z,8.90
2023-03-28T23:31:15.139Z,10.10
2023-03-28T23:33:44.625Z,8.27
2023-03-28T23:36:14.192Z,8.67
2023-03-28T23:38:43.001Z,10.63
2023-03-28T23:41:11.678Z,9.87
2023-03-28T23:43:40.165Z,9.47
2023-03-28T23:46:08.965Z,7.47
2023-03-28T23:48:39.183Z,8.17
2023-03-28T23:51:09.081Z,9.27
2023-03-28T23:53:37.761Z,8.03
2023-03-28T23:56:07.984Z,10.93
2023-03-28T23:58:37.071Z,13.30
